Time;durP1;ratioP1;P1;durP2;ratioP2;P2;SDS_P1;SDS_P2;PMS_P1;PMS_P2;Temp;Humidity;BMP_temperature;BMP_pressure;BME280_temperature;BME280_humidity;BME280_pressure;Samples;Min_cycle;Max_cycle;Signal;HPM_P1;HPM_P2
2023/03/04 00:00:44;;;;;;;16.95;6.00;;;;;;;3.10;59.29;101125.22;12845692;23;20422;-64
2023/03/04 00:05:46;;;;;;;19.48;7.45;;;;;;;3.05;59.70;101122.06;12837627;23;20029;-63
2023/03/04 00:10:47;;;;;;;19.25;8.48;;;;;;;3.00;59.52;101135.66;12839778;23;20020;-64
2023/03/04 00:15:48;;;;;;;16.77;7.50;;;;;;;2.91;59.18;101123.88;12835244;23;20087;-63
2023/03/04 00:20:50;;;;;;;21.60;8.43;;;;;;;2.86;59.82;101131.31;12851156;23;20025;-62
2023/03/04 00:25:51;;;;;;;16.35;7.05;;;;;;;2.83;60.24;101126.22;12835292;23;20020;-63
2023/03/04 00:30:53;;;;;;;17.77;7.90;;;;;;;2.78;59.53;101133.66;12837182;23;20027;-63
2023/03/04 00:35:54;;;;;;;20.45;8.20;;;;;;;2.73;59.69;101127.81;12838382;23;20075;-63
2023/03/04 00:40:56;;;;;;;21.15;8.85;;;;;;;2.72;60.39;101131.41;12835431;23;20028;-63
2023/03/04 00:45:58;;;;;;;25.98;10.40;;;;;;;2.68;60.50;101137.91;12835764;23;20025;-63
2023/03/04 00:51:00;;;;;;;29.33;10.52;;;;;;;2.67;60.55;101133.56;12838577;23;20381;-62
2023/03/04 00:56:01;;;;;;;24.42;9.63;;;;;;;2.63;60.07;101129.44;12836289;23;20020;-64
2023/03/04 01:01:02;;;;;;;23.85;9.93;;;;;;;2.66;60.00;101126.53;12842227;23;20061;-63
2023/03/04 01:06:04;;;;;;;28.95;9.32;;;;;;;2.72;60.78;101120.81;12835168;23;20028;-64
2023/03/04 01:11:06;;;;;;;27.08;9.75;;;;;;;2.76;60.58;101116.97;12837565;23;20021;-62
2023/03/04 01:16:09;;;;;;;28.75;10.77;;;;;;;2.79;60.48;101114.13;12841048;23;20020;-64
2023/03/04 01:21:10;;;;;;;28.10;10.60;;;;;;;2.76;60.22;101112.53;12842093;23;20024;-63
2023/03/04 01:26:11;;;;;;;33.85;11.88;;;;;;;2.78;60.40;101107.09;12840301;23;20399;-63
2023/03/04 01:31:13;;;;;;;32.20;11.60;;;;;;;2.77;60.93;101095.63;12840487;23;20020;-64
2023/03/04 01:36:14;;;;;;;33.88;11.65;;;;;;;2.66;61.31;101089.38;12839601;23;20091;-64
2023/03/04 01:41:21;;;;;;;31.88;11.50;;;;;;;2.79;61.12;101084.91;12839800;23;20047;-64
2023/03/04 01:46:23;;;;;;;32.72;13.02;;;;;;;2.96;61.41;101068.66;12839724;23;20016;-64
2023/03/04 01:51:24;;;;;;;39.35;12.48;;;;;;;3.06;61.69;101063.53;12840910;23;20020;-64
2023/03/04 01:56:34;;;;;;;34.53;12.82;;;;;;;3.28;61.07;101054.88;12838178;23;20369;-63
2023/03/04 02:01:37;;;;;;;36.60;13.80;;;;;;;3.48;60.71;101048.09;12844852;23;20016;-63
2023/03/04 02:06:40;;;;;;;38.13;13.68;;;;;;;3.67;60.70;101042.25;12839442;23;20083;-63
2023/03/04 02:11:43;;;;;;;39.88;14.60;;;;;;;3.79;61.00;101040.47;12840035;23;20035;-64
2023/03/04 02:16:45;;;;;;;39.10;15.52;;;;;;;3.88;60.58;101039.78;12838250;23;20102;-64
2023/03/04 02:21:47;;;;;;;37.63;13.88;;;;;;;4.03;60.81;101029.81;12840174;23;20020;-63
2023/03/04 02:26:48;;;;;;;37.22;13.90;;;;;;;4.12;60.63;101028.25;12838220;23;20102;-63
2023/03/04 02:31:52;;;;;;;36.92;12.85;;;;;;;4.23;60.34;101028.28;12840528;23;20025;-64
2023/03/04 02:36:54;;;;;;;34.22;13.73;;;;;;;4.31;60.28;101030.38;12815837;23;20020;-63
2023/03/04 02:41:57;;;;;;;39.00;14.20;;;;;;;4.39;60.13;101019.13;12838060;23;20074;-64
2023/03/04 02:46:59;;;;;;;36.58;14.93;;;;;;;4.40;60.26;101012.81;12839585;23;20032;-64
2023/03/04 02:52:02;;;;;;;36.60;14.02;;;;;;;4.43;60.50;101015.25;12839590;23;20047;-65
2023/03/04 02:57:06;;;;;;;37.50;14.43;;;;;;;4.48;60.06;101010.41;12838064;23;20106;-64
2023/03/04 03:02:08;;;;;;;34.75;14.48;;;;;;;4.55;60.14;101008.97;12840167;23;20083;-64
2023/03/04 03:07:10;;;;;;;32.50;15.32;;;;;;;4.63;59.66;101013.69;12837262;23;20055;-64
2023/03/04 03:12:12;;;;;;;37.90;14.27;;;;;;;4.64;59.92;101002.06;12839151;23;20163;-64
2023/03/04 03:17:13;;;;;;;39.45;15.57;;;;;;;4.61;59.98;100997.81;12837250;23;20036;-64
2023/03/04 03:22:14;;;;;;;35.38;15.13;;;;;;;4.60;60.00;101004.13;12838411;23;20016;-63
2023/03/04 03:27:16;;;;;;;36.30;14.63;;;;;;;4.59;60.08;100999.75;12847697;23;20459;-64
2023/03/04 03:32:17;;;;;;;34.25;14.13;;;;;;;4.60;60.15;101001.47;12838908;23;20027;-62
2023/03/04 03:37:19;;;;;;;41.72;15.20;;;;;;;4.67;60.18;100999.16;12837449;23;20851;-62
2023/03/04 03:42:20;;;;;;;30.38;13.85;;;;;;;4.69;60.36;100998.06;12838842;23;20024;-63
2023/03/04 03:47:22;;;;;;;32.85;15.55;;;;;;;4.77;59.94;100994.78;12837353;23;20020;-62
2023/03/04 03:52:23;;;;;;;34.35;16.25;;;;;;;4.89;59.70;100999.13;12837872;23;20016;-63
2023/03/04 03:57:24;;;;;;;35.45;16.33;;;;;;;4.97;59.40;101002.03;12836594;23;20346;-63
2023/03/04 04:02:26;;;;;;;30.48;13.10;;;;;;;5.08;59.67;100992.34;12836685;23;20106;-62
2023/03/04 04:07:27;;;;;;;35.78;14.13;;;;;;;5.13;59.40;100991.00;12835285;23;20013;-63
2023/03/04 04:12:29;;;;;;;37.10;15.40;;;;;;;5.18;59.49;100985.28;12835527;23;20091;-63
2023/03/04 04:17:31;;;;;;;32.97;14.05;;;;;;;5.19;59.49;100992.28;12861672;23;20024;-62
2023/03/04 04:22:32;;;;;;;35.75;15.32;;;;;;;5.19;59.60;100988.78;12901221;23;20391;-63
2023/03/04 04:27:34;;;;;;;33.83;13.63;;;;;;;5.16;59.53;100987.22;12899329;23;20028;-63
2023/03/04 04:32:35;;;;;;;36.92;14.55;;;;;;;5.16;59.46;100987.22;12901653;23;20383;-62
2023/03/04 04:37:37;;;;;;;35.08;13.85;;;;;;;5.04;59.63;100988.22;12873001;23;20020;-63
2023/03/04 04:42:38;;;;;;;33.20;14.73;;;;;;;4.96;59.75;100983.50;12897538;23;20078;-63
2023/03/04 04:47:40;;;;;;;34.47;14.68;;;;;;;4.89;59.58;100993.81;12897978;23;20032;-62
2023/03/04 04:52:41;;;;;;;39.78;13.90;;;;;;;4.86;59.88;100974.53;12888104;23;20027;-61
2023/03/04 04:57:42;;;;;;;37.60;14.55;;;;;;;4.82;59.98;100973.09;12941329;23;20028;-61
2023/03/04 05:02:44;;;;;;;39.00;13.65;;;;;;;4.85;59.63;100973.72;12909871;23;20032;-61
2023/03/04 05:07:45;;;;;;;38.08;15.10;;;;;;;4.92;59.97;100974.09;12934030;23;20024;-61
2023/03/04 05:12:48;;;;;;;37.17;14.52;;;;;;;4.93;59.70;100976.59;12938976;22;20016;-61
2023/03/04 05:17:50;;;;;;;34.00;14.77;;;;;;;4.96;59.84;100972.88;12936052;23;20027;-61
2023/03/04 05:22:51;;;;;;;34.75;13.45;;;;;;;5.02;59.55;100974.19;12934212;23;20039;-61
2023/03/04 05:27:52;;;;;;;36.28;14.48;;;;;;;5.08;59.83;100979.00;12935680;23;20020;-62
2023/03/04 05:32:54;;;;;;;35.72;15.35;;;;;;;5.11;59.70;100979.59;12938757;23;20492;-62
2023/03/04 05:37:55;;;;;;;36.97;14.82;;;;;;;5.08;60.00;100979.00;12934853;23;20020;-62
2023/03/04 05:42:56;;;;;;;33.30;15.18;;;;;;;5.19;60.02;100978.97;12937240;23;20023;-62
2023/03/04 05:47:59;;;;;;;30.85;13.73;;;;;;;5.25;59.70;100972.28;12951814;23;20502;-62
2023/03/04 05:53:00;;;;;;;29.52;15.27;;;;;;;5.26;59.73;100976.66;12938633;23;20020;-62
2023/03/04 05:58:01;;;;;;;27.95;13.82;;;;;;;5.31;59.68;100980.66;12930977;23;20050;-62
2023/03/04 06:03:03;;;;;;;30.85;14.82;;;;;;;5.31;59.52;100975.31;12921891;23;20028;-64
2023/03/04 06:08:04;;;;;;;33.38;15.70;;;;;;;5.46;59.38;100989.19;12898951;23;20024;-62
2023/03/04 06:13:06;;;;;;;25.67;13.85;;;;;;;5.50;58.76;100989.78;12902338;22;20089;-64
2023/03/04 06:18:08;;;;;;;27.00;14.02;;;;;;;5.59;58.97;100991.69;12902244;23;20085;-64
2023/03/04 06:23:09;;;;;;;26.20;13.52;;;;;;;5.73;58.28;101002.03;12898531;23;20162;-64
2023/03/04 06:28:11;;;;;;;33.67;14.25;;;;;;;5.79;58.24;101006.03;12898144;23;20016;-64
2023/03/04 06:33:12;;;;;;;29.27;14.25;;;;;;;5.82;58.17;101007.56;12908321;23;20020;-65
2023/03/04 06:38:14;;;;;;;32.63;15.18;;;;;;;5.91;57.85;101014.81;12898905;23;20020;-66
2023/03/04 06:43:15;;;;;;;27.42;14.00;;;;;;;6.03;57.83;101023.63;12903877;23;20038;-64
2023/03/04 06:48:17;;;;;;;29.35;14.23;;;;;;;6.01;57.63;101021.09;12899475;23;20047;-64
2023/03/04 06:53:18;;;;;;;27.95;13.73;;;;;;;6.07;57.46;101031.25;12900339;23;20058;-64
2023/03/04 06:58:19;;;;;;;28.38;14.68;;;;;;;6.03;57.49;101032.47;12897308;23;20020;-62
2023/03/04 07:03:21;;;;;;;27.38;14.27;;;;;;;6.00;57.40;101029.22;12901697;23;20425;-66
2023/03/04 07:08:22;;;;;;;33.03;13.57;;;;;;;6.01;57.83;101033.59;12897885;22;20031;-65
2023/03/04 07:13:24;;;;;;;26.13;12.55;;;;;;;6.08;57.13;101027.63;12902593;23;20023;-64
2023/03/04 07:18:25;;;;;;;25.15;12.10;;;;;;;6.21;57.13;101037.25;12896772;23;20028;-61
2023/03/04 07:23:27;;;;;;;27.35;12.70;;;;;;;6.32;57.02;101037.19;12901860;23;20028;-65
2023/03/04 07:28:28;;;;;;;26.48;12.75;;;;;;;6.40;56.70;101034.69;12927610;23;20020;-60
2023/03/04 07:33:30;;;;;;;24.65;11.88;;;;;;;6.49;56.74;101049.06;12933399;23;20058;-62
2023/03/04 07:38:31;;;;;;;24.65;12.27;;;;;;;6.41;57.18;101049.72;12932929;23;20012;-62
2023/03/04 07:43:33;;;;;;;25.58;12.30;;;;;;;6.59;57.04;101049.97;12932149;22;20016;-62
2023/03/04 07:48:36;;;;;;;20.65;11.20;;;;;;;6.43;57.31;101047.75;12958581;23;20054;-60
2023/03/04 07:53:38;;;;;;;23.52;10.27;;;;;;;6.42;57.27;101043.41;12961265;22;20031;-61
2023/03/04 07:58:40;;;;;;;26.50;11.23;;;;;;;6.55;56.93;101046.69;12959988;22;20004;-61
2023/03/04 08:03:42;;;;;;;23.75;11.13;;;;;;;6.75;56.50;101046.81;12944128;23;20066;-60
2023/03/04 08:08:44;;;;;;;24.98;10.43;;;;;;;6.82;55.76;101041.78;12936208;22;20043;-60
2023/03/04 08:13:47;;;;;;;25.13;10.63;;;;;;;6.85;55.17;101053.06;12935659;23;20016;-61
2023/03/04 08:18:51;;;;;;;20.88;9.13;;;;;;;6.85;55.75;101053.06;12935251;23;20152;-60
2023/03/04 08:23:53;;;;;;;21.20;8.95;;;;;;;6.83;55.42;101052.34;12911031;23;20024;-61
2023/03/04 08:28:56;;;;;;;21.08;8.95;;;;;;;6.74;56.18;101061.16;12934965;23;20028;-60
2023/03/04 08:33:57;;;;;;;26.75;9.35;;;;;;;6.88;55.30;101070.63;12936516;23;20071;-59
2023/03/04 08:38:59;;;;;;;26.10;10.40;;;;;;;6.87;55.57;101061.78;12935823;23;20074;-61
2023/03/04 08:44:00;;;;;;;21.52;8.98;;;;;;;7.05;54.98;101070.00;12936052;23;20055;-61
2023/03/04 08:49:03;;;;;;;22.55;8.43;;;;;;;6.92;55.36;101064.88;12913941;23;20012;-60
2023/03/04 08:54:04;;;;;;;27.67;8.95;;;;;;;7.20;54.53;101061.59;12922551;22;20028;-61
2023/03/04 08:59:06;;;;;;;15.60;8.43;;;;;;;7.34;54.69;101070.06;12957825;22;20310;-63
2023/03/04 09:04:07;;;;;;;17.08;9.02;;;;;;;7.28;53.98;101067.94;12959335;22;20042;-63
2023/03/04 09:09:09;;;;;;;22.00;6.93;;;;;;;7.45;54.45;101057.59;12962645;22;20011;-62
2023/03/04 09:14:10;;;;;;;17.98;6.95;;;;;;;7.59;53.75;101065.19;12962443;22;20023;-62
2023/03/04 09:19:12;;;;;;;15.43;6.65;;;;;;;7.30;54.17;101060.63;12962132;22;20012;-63
2023/03/04 09:24:13;;;;;;;18.35;7.03;;;;;;;7.41;54.20;101056.16;12952027;22;20028;-62
2023/03/04 09:29:14;;;;;;;20.60;6.72;;;;;;;7.26;54.32;101063.72;12938164;22;20020;-62
2023/03/04 09:34:16;;;;;;;18.20;6.38;;;;;;;7.45;53.32;101061.09;12911044;23;20046;-59
2023/03/04 09:39:17;;;;;;;18.65;6.82;;;;;;;7.59;53.84;101062.53;12941226;23;20024;-62
2023/03/04 09:44:29;;;;;;;15.77;5.68;;;;;;;7.83;53.51;101055.94;12928978;22;20018;-63
2023/03/04 09:49:31;;;;;;;19.60;6.03;;;;;;;7.85;52.99;101059.31;12960797;22;20108;-61
2023/03/04 09:54:44;;;;;;;18.65;6.53;;;;;;;7.98;53.44;101056.34;12955663;23;20028;-61
2023/03/04 10:00:06;;;;;;;16.75;5.60;;;;;;;7.91;53.41;101056.06;12961184;22;20008;-62
2023/03/04 10:05:15;;;;;;;14.95;4.68;;;;;;;7.84;52.95;101052.25;12913659;22;20008;-62
2023/03/04 10:10:39;;;;;;;17.85;4.32;;;;;;;7.75;52.84;101051.28;12965284;22;20024;-61
2023/03/04 10:15:45;;;;;;;15.70;4.90;;;;;;;7.70;52.55;101049.03;12964713;22;20012;-63
2023/03/04 10:21:05;;;;;;;12.95;4.25;;;;;;;8.09;52.24;101038.28;12937321;22;20206;-62
2023/03/04 10:26:12;;;;;;;13.57;3.95;;;;;;;8.10;52.26;101039.16;12963024;22;20181;-62
2023/03/04 10:31:27;;;;;;;15.55;4.72;;;;;;;8.11;52.45;101041.66;12970817;22;20080;-63
2023/03/04 10:36:29;;;;;;;15.15;5.13;;;;;;;8.28;51.88;101031.22;12937976;22;20214;-63
2023/03/04 10:41:31;;;;;;;14.35;3.67;;;;;;;8.44;52.01;101023.44;12964222;22;20150;-62
2023/03/04 10:46:37;;;;;;;12.32;3.83;;;;;;;7.90;52.21;101020.44;12967766;22;20023;-62
2023/03/04 10:52:02;;;;;;;13.20;3.55;;;;;;;8.09;52.08;101022.22;12964781;22;20052;-63
2023/03/04 10:57:12;;;;;;;14.52;4.18;;;;;;;8.28;51.38;101016.00;12962262;22;20015;-63
2023/03/04 11:02:14;;;;;;;13.80;4.03;;;;;;;8.32;52.19;101012.03;12965412;22;20012;-62
2023/03/04 11:07:15;;;;;;;19.50;5.30;;;;;;;8.46;51.58;101004.56;12962924;22;20000;-63
2023/03/04 11:12:21;;;;;;;8.80;2.70;;;;;;;8.56;51.72;101009.88;12964723;22;20058;-62
2023/03/04 11:17:47;;;;;;;8.32;2.50;;;;;;;8.53;51.85;101003.84;12963760;22;20036;-63
2023/03/04 11:22:50;;;;;;;11.50;3.45;;;;;;;8.61;51.54;100994.19;12963574;22;20090;-62
2023/03/04 11:27:59;;;;;;;6.50;2.50;;;;;;;8.48;50.85;100990.03;12935650;22;20130;-62
2023/03/04 11:33:25;;;;;;;10.35;2.72;;;;;;;8.42;51.60;100987.09;12965289;22;20008;-62
2023/03/04 11:38:38;;;;;;;12.93;3.92;;;;;;;8.72;50.53;100981.44;12965806;22;20000;-63
2023/03/04 11:43:45;;;;;;;11.68;3.15;;;;;;;8.82;50.89;100985.94;12962492;22;20056;-62
2023/03/04 11:49:05;;;;;;;17.65;3.38;;;;;;;9.09;50.62;100985.09;12962165;22;20023;-62
2023/03/04 11:54:31;;;;;;;10.60;2.53;;;;;;;9.08;50.25;100978.00;12964670;22;20088;-62
2023/03/04 11:59:57;;;;;;;8.07;2.97;;;;;;;9.11;50.22;100973.19;12951703;22;20024;-61
2023/03/04 12:05:16;;;;;;;10.80;2.40;;;;;;;9.10;50.35;100962.63;12936411;22;20016;-63
2023/03/04 12:10:51;;;;;;;9.60;1.80;;;;;;;9.05;50.18;100951.53;12927111;22;20012;-62
2023/03/04 12:15:59;;;;;;;6.53;2.03;;;;;;;9.50;49.28;100946.09;12920498;23;20029;-65
2023/03/04 12:21:00;;;;;;;;;;;;;;;9.28;49.86;100938.47;12931739;23;20084;-62
2023/03/04 12:26:07;;;;;;;4.97;1.08;;;;;;;9.18;49.75;100933.19;12940690;23;19922;-61
2023/03/04 12:31:32;;;;;;;11.77;1.65;;;;;;;9.10;49.81;100927.75;12934013;23;20070;-59
2023/03/04 12:36:36;;;;;;;10.68;1.50;;;;;;;9.12;49.48;100921.25;12932062;23;20024;-61
2023/03/04 12:42:28;;;;;;;6.20;1.42;;;;;;;9.09;49.68;100912.66;12945809;23;20039;-62
2023/03/04 12:47:50;;;;;;;6.35;1.17;;;;;;;9.20;48.96;100892.81;12877452;23;20020;-61
2023/03/04 12:53:13;;;;;;;1.75;0.70;;;;;;;9.24;48.85;100891.50;12943144;23;20081;-60
2023/03/04 12:58:18;;;;;;;6.38;1.33;;;;;;;9.50;48.16;100887.06;12939785;23;20004;-60
2023/03/04 13:03:23;;;;;;;3.55;0.90;;;;;;;9.66;48.30;100866.69;12949107;23;20050;-62
2023/03/04 13:08:32;;;;;;;2.58;0.93;;;;;;;9.44;47.98;100876.06;12936606;22;20696;-62
2023/03/04 13:13:36;;;;;;;3.63;0.70;;;;;;;9.58;47.77;100867.47;12936728;23;20049;-61
2023/03/04 13:18:38;;;;;;;7.05;0.95;;;;;;;9.52;47.93;100857.38;12930765;23;20028;-62
2023/03/04 13:23:41;;;;;;;3.25;0.88;;;;;;;9.62;47.91;100855.44;12909188;23;20039;-61
2023/03/04 13:28:42;;;;;;;3.47;0.70;;;;;;;9.50;48.20;100849.47;12934855;23;20028;-61
2023/03/04 13:33:48;;;;;;;5.55;0.60;;;;;;;9.64;48.36;100848.06;12939902;23;20058;-61
2023/03/04 13:39:20;;;;;;;4.53;0.70;;;;;;;9.67;47.92;100842.38;12912143;23;20058;-61
2023/03/04 13:44:43;;;;;;;5.18;1.10;;;;;;;9.75;48.02;100832.69;12944234;22;20000;-63
2023/03/04 13:55:32;;;;;;;1.90;0.60;;;;;;;9.82;47.86;100823.84;12886702;22;20062;-61
2023/03/04 14:06:17;;;;;;;3.65;1.10;;;;;;;9.53;48.31;100824.16;12887285;22;20043;-63
2023/03/04 14:11:37;;;;;;;3.25;0.82;;;;;;;9.60;48.47;100811.81;12803067;23;20179;-62
2023/03/04 14:16:54;;;;;;;4.68;1.80;;;;;;;9.44;48.58;100817.03;12824953;23;20125;-62
2023/03/04 14:21:58;;;;;;;2.67;1.35;;;;;;;9.48;48.71;100807.72;12830223;23;20001;-62
2023/03/04 14:27:09;;;;;;;4.93;1.48;;;;;;;9.51;48.84;100807.38;12834836;23;20101;-63
2023/03/04 14:32:11;;;;;;;4.43;1.77;;;;;;;9.32;49.52;100801.22;12838408;23;20001;-64
2023/03/04 14:37:25;;;;;;;4.43;1.35;;;;;;;9.47;49.27;100795.28;12811093;23;20008;-63
2023/03/04 14:42:38;;;;;;;5.15;1.10;;;;;;;9.49;49.76;100790.59;12839863;23;20072;-64
2023/03/04 14:47:44;;;;;;;8.98;1.60;;;;;;;9.33;50.00;100783.28;12823315;23;20032;-60
2023/03/04 14:52:50;;;;;;;5.03;1.52;;;;;;;9.44;50.11;100780.34;12817259;23;20039;-59
2023/03/04 14:58:04;;;;;;;4.53;1.23;;;;;;;9.31;50.59;100778.06;12807809;23;20052;-60
2023/03/04 15:03:18;;;;;;;5.25;1.35;;;;;;;9.33;50.42;100778.75;12806560;23;20071;-61
2023/03/04 15:08:31;;;;;;;11.82;1.85;;;;;;;9.55;50.00;100773.03;12814037;23;20081;-61
2023/03/04 15:13:49;;;;;;;4.00;1.10;;;;;;;9.41;50.39;100774.44;12810012;23;20044;-61
2023/03/04 15:19:25;;;;;;;2.50;1.05;;;;;;;9.25;50.72;100759.91;12812270;23;20025;-61
2023/03/04 15:24:26;;;;;;;2.95;0.90;;;;;;;9.29;51.08;100765.81;12821656;23;20020;-61
2023/03/04 15:29:28;;;;;;;2.60;0.85;;;;;;;9.39;50.58;100765.72;12831641;23;20013;-62
2023/03/04 15:34:30;;;;;;;3.28;1.00;;;;;;;9.44;50.58;100758.00;12830652;23;20085;-63
2023/03/04 15:39:31;;;;;;;1.63;0.80;;;;;;;9.51;50.80;100764.44;12830146;23;20048;-62
2023/03/04 15:44:33;;;;;;;4.43;1.13;;;;;;;9.45;50.64;100757.03;12834081;23;20001;-62
2023/03/04 15:49:34;;;;;;;4.88;1.10;;;;;;;9.30;51.34;100765.66;12833882;23;20029;-62
2023/03/04 15:54:35;;;;;;;5.75;1.73;;;;;;;9.22;51.63;100751.34;12813413;23;20025;-60
2023/03/04 15:59:37;;;;;;;4.53;1.42;;;;;;;9.17;51.79;100759.03;12806855;23;20025;-61
2023/03/04 16:04:38;;;;;;;2.25;1.25;;;;;;;9.09;52.38;100751.75;12806901;23;20108;-60
2023/03/04 16:09:40;;;;;;;3.03;0.93;;;;;;;9.05;52.13;100758.44;12786779;23;20031;-61
2023/03/04 16:14:43;;;;;;;4.88;1.80;;;;;;;9.00;52.31;100769.63;12798725;23;20037;-62
2023/03/04 16:19:45;;;;;;;6.63;1.33;;;;;;;9.03;52.91;100755.06;12784815;23;20020;-60
2023/03/04 16:24:47;;;;;;;5.15;1.40;;;;;;;9.13;52.77;100751.28;12814416;23;20110;-62
2023/03/04 16:29:48;;;;;;;4.88;1.35;;;;;;;9.16;52.49;100739.38;12826463;23;20044;-61
2023/03/04 16:34:49;;;;;;;2.47;1.23;;;;;;;9.09;53.27;100747.22;12840142;23;20028;-64
2023/03/04 16:39:51;;;;;;;5.70;1.45;;;;;;;9.05;53.00;100755.75;12817184;23;20025;-63
2023/03/04 16:44:53;;;;;;;5.05;1.80;;;;;;;9.04;52.97;100746.84;12837640;23;20020;-63
2023/03/04 16:49:56;;;;;;;5.47;2.08;;;;;;;8.91;53.66;100744.59;12836907;23;20013;-63
2023/03/04 16:54:59;;;;;;;4.47;1.80;;;;;;;8.79;54.02;100748.50;12831049;23;20085;-62
2023/03/04 17:00:00;;;;;;;3.72;2.00;;;;;;;8.81;54.32;100749.19;12820540;23;20033;-62
2023/03/04 17:05:03;;;;;;;7.25;3.22;;;;;;;8.78;54.59;100757.53;12835513;23;20080;-65
2023/03/04 17:10:04;;;;;;;6.32;3.47;;;;;;;8.73;55.12;100749.13;12806794;23;20013;-62
2023/03/04 17:15:08;;;;;;;7.43;3.35;;;;;;;8.71;54.99;100757.31;12806551;23;20116;-63
2023/03/04 17:20:13;;;;;;;9.35;4.00;;;;;;;8.80;54.59;100752.03;12833904;23;20031;-61
2023/03/04 17:25:14;;;;;;;6.55;3.22;;;;;;;8.68;55.18;100760.28;12811557;23;20005;-64
2023/03/04 17:30:16;;;;;;;7.80;3.75;;;;;;;8.51;56.43;100767.34;12828227;23;20033;-63
2023/03/04 17:35:18;;;;;;;10.20;3.80;;;;;;;8.54;56.28;100771.56;12792530;23;20021;-63
2023/03/04 17:40:19;;;;;;;10.88;4.43;;;;;;;8.53;56.60;100769.84;12779619;23;20024;-62
2023/03/04 17:45:21;;;;;;;11.82;4.85;;;;;;;8.59;56.20;100779.13;12810642;23;20422;-61
2023/03/04 17:50:22;;;;;;;8.57;5.10;;;;;;;8.65;56.54;100778.50;12802905;23;20021;-63
2023/03/04 17:55:25;;;;;;;9.30;5.68;;;;;;;8.54;57.03;100777.75;12803835;23;20028;-61
2023/03/04 18:00:26;;;;;;;16.23;6.97;;;;;;;8.56;56.73;100772.25;12787718;23;20530;-63
2023/03/04 18:05:28;;;;;;;8.48;3.92;;;;;;;8.46;57.58;100764.28;12825179;23;20113;-63
2023/03/04 18:10:29;;;;;;;10.00;4.20;;;;;;;8.46;57.57;100756.25;12828405;23;20085;-61
2023/03/04 18:15:30;;;;;;;11.02;4.72;;;;;;;8.44;57.09;100755.56;12824673;23;20021;-61
2023/03/04 18:20:32;;;;;;;11.57;5.45;;;;;;;8.42;57.71;100759.38;12823112;23;20033;-61
2023/03/04 18:25:34;;;;;;;10.65;4.80;;;;;;;8.32;58.71;100756.75;12824481;23;20017;-61
2023/03/04 18:30:36;;;;;;;11.85;5.38;;;;;;;8.34;58.01;100755.59;12812665;23;20021;-61
2023/03/04 18:35:38;;;;;;;9.65;5.55;;;;;;;8.29;58.32;100760.56;12811612;23;20025;-62
2023/03/04 18:40:40;;;;;;;12.48;6.68;;;;;;;8.34;58.76;100755.59;12833831;23;20085;-62
2023/03/04 18:45:42;;;;;;;13.27;5.85;;;;;;;8.22;59.14;100751.44;12802238;23;20063;-62
2023/03/04 18:50:44;;;;;;;15.45;7.35;;;;;;;8.26;59.00;100749.31;12805356;23;20028;-62
2023/03/04 18:55:45;;;;;;;11.65;6.43;;;;;;;8.28;58.62;100747.31;12745204;23;20041;-67
2023/03/04 19:00:47;;;;;;;14.23;6.63;;;;;;;8.28;58.16;100742.81;12782875;23;20029;-63
2023/03/04 19:05:48;;;;;;;11.63;6.05;;;;;;;8.32;58.78;100746.84;12756719;23;20032;-63
2023/03/04 19:10:50;;;;;;;15.40;7.10;;;;;;;8.24;58.92;100752.13;12745454;23;20052;-62
2023/03/04 19:15:53;;;;;;;11.73;6.50;;;;;;;8.26;58.79;100752.00;12782353;23;20033;-62
2023/03/04 19:20:58;;;;;;;10.65;6.15;;;;;;;8.29;59.04;100751.66;12761345;23;20043;-62
2023/03/04 19:25:59;;;;;;;10.27;6.35;;;;;;;8.39;58.75;100760.47;12778999;23;20025;-63
2023/03/04 19:31:06;;;;;;;13.52;7.25;;;;;;;8.47;58.53;100754.41;12763639;23;20076;-62
2023/03/04 19:36:08;;;;;;;13.95;6.95;;;;;;;8.53;58.28;100745.75;12754491;23;20492;-63
2023/03/04 19:41:12;;;;;;;13.55;6.15;;;;;;;8.46;58.53;100752.72;12778265;23;20071;-63
2023/03/04 19:46:14;;;;;;;13.60;6.97;;;;;;;8.40;59.35;100756.81;12756112;23;20016;-62
2023/03/04 19:51:18;;;;;;;14.30;7.47;;;;;;;8.42;58.83;100748.66;12792947;23;20032;-63
2023/03/04 19:56:22;;;;;;;11.63;7.80;;;;;;;8.49;59.13;100750.59;12775385;23;20087;-62
2023/03/04 20:01:29;;;;;;;15.38;7.40;;;;;;;8.50;58.39;100748.75;12773233;23;20021;-62
2023/03/04 20:06:34;;;;;;;12.33;6.67;;;;;;;8.61;58.42;100750.34;12812001;23;20381;-60
2023/03/04 20:11:36;;;;;;;8.05;4.75;;;;;;;8.59;58.25;100744.28;12797708;23;20024;-61
2023/03/04 20:16:47;;;;;;;11.85;5.15;;;;;;;8.58;58.78;100745.31;12808561;23;20013;-62
2023/03/04 20:21:49;;;;;;;10.65;5.47;;;;;;;8.64;58.50;100737.47;12808009;23;20109;-63
2023/03/04 20:26:51;;;;;;;9.73;6.35;;;;;;;8.57;59.35;100736.44;12783512;23;20032;-62
2023/03/04 20:31:52;;;;;;;9.60;5.90;;;;;;;8.68;58.30;100741.53;12805079;23;20096;-60
2023/03/04 20:36:53;;;;;;;9.55;5.63;;;;;;;8.80;58.07;100746.66;12812136;23;20077;-60
2023/03/04 20:41:58;;;;;;;9.18;5.60;;;;;;;8.72;58.40;100740.22;12751973;23;20083;-60
2023/03/04 20:47:00;;;;;;;11.73;5.80;;;;;;;8.61;58.84;100745.84;12790394;23;20048;-61
2023/03/04 20:52:05;;;;;;;11.15;5.53;;;;;;;8.64;58.78;100747.38;12771605;23;20024;-62
2023/03/04 20:57:07;;;;;;;10.75;6.05;;;;;;;8.59;58.56;100750.53;12781149;23;20029;-60
2023/03/04 21:02:13;;;;;;;12.23;7.28;;;;;;;8.60;59.21;100746.81;12766710;23;20028;-59
2023/03/04 21:07:15;;;;;;;12.90;6.13;;;;;;;8.64;58.90;100750.03;12766314;23;20028;-60
2023/03/04 21:12:16;;;;;;;11.80;7.55;;;;;;;8.62;59.07;100750.19;12810529;23;20028;-62
2023/03/04 21:17:18;;;;;;;11.82;7.28;;;;;;;8.56;59.01;100739.25;12768407;23;20024;-62
2023/03/04 21:22:19;;;;;;;11.30;7.22;;;;;;;8.59;59.18;100730.91;12767626;23;20029;-60
2023/03/04 21:27:21;;;;;;;11.75;6.85;;;;;;;8.38;59.99;100747.25;12766621;23;20025;-60
2023/03/04 21:32:25;;;;;;;12.98;6.53;;;;;;;8.29;60.41;100732.91;12800490;23;20092;-62
2023/03/04 21:37:26;;;;;;;14.70;7.18;;;;;;;8.43;59.22;100731.59;12810287;23;20024;-60
2023/03/04 21:42:28;;;;;;;12.82;6.90;;;;;;;8.43;59.76;100728.91;12799258;23;20112;-61
2023/03/04 21:47:29;;;;;;;9.90;6.45;;;;;;;8.47;59.17;100722.25;12771707;23;20082;-62
2023/03/04 21:52:31;;;;;;;10.52;6.50;;;;;;;8.36;59.29;100723.28;12772716;23;20052;-60
2023/03/04 21:57:32;;;;;;;15.73;6.63;;;;;;;8.24;60.10;100721.84;12781973;23;20025;-61
2023/03/04 22:02:33;;;;;;;11.20;6.13;;;;;;;8.15;60.84;100718.22;12782620;23;20025;-63
2023/03/04 22:07:35;;;;;;;10.43;6.53;;;;;;;8.01;60.22;100714.22;12805337;23;20021;-60
2023/03/04 22:12:36;;;;;;;12.38;6.13;;;;;;;8.07;60.30;100708.25;12802696;23;20021;-64
2023/03/04 22:17:38;;;;;;;9.32;5.03;;;;;;;8.13;59.92;100702.28;12815315;23;20028;-61
2023/03/04 22:22:39;;;;;;;11.13;6.15;;;;;;;8.21;59.96;100704.22;12814402;23;20020;-63
2023/03/04 22:27:40;;;;;;;11.85;5.80;;;;;;;8.26;59.14;100711.81;12789288;23;20627;-62
2023/03/04 22:32:47;;;;;;;11.52;6.63;;;;;;;8.24;59.66;100703.09;12822347;23;20043;-61
2023/03/04 22:37:48;;;;;;;9.52;4.47;;;;;;;8.23;59.66;100712.94;12805561;23;20035;-61
2023/03/04 22:42:49;;;;;;;9.95;6.00;;;;;;;8.18;59.61;100712.56;12807983;23;20056;-61
2023/03/04 22:47:51;;;;;;;16.33;6.82;;;;;;;8.21;58.75;100706.91;12841120;23;20081;-62
2023/03/04 22:52:53;;;;;;;13.30;6.78;;;;;;;8.32;59.13;100705.84;12834737;23;20025;-62
2023/03/04 22:57:54;;;;;;;12.60;6.63;;;;;;;8.45;58.36;100698.31;12816368;23;20021;-60
2023/03/04 23:02:56;;;;;;;14.27;6.55;;;;;;;8.31;58.33;100704.16;12795340;23;20024;-61
2023/03/04 23:07:58;;;;;;;12.00;6.97;;;;;;;8.28;59.11;100705.31;12782284;23;20016;-61
2023/03/04 23:12:59;;;;;;;11.43;6.55;;;;;;;8.27;58.30;100708.13;12832387;23;20052;-62
2023/03/04 23:18:01;;;;;;;16.02;6.88;;;;;;;8.22;59.31;100700.56;12833966;23;20039;-63
2023/03/04 23:23:02;;;;;;;16.38;7.35;;;;;;;8.31;59.04;100698.78;12827025;23;20055;-62
2023/03/04 23:28:04;;;;;;;12.10;7.35;;;;;;;8.36;58.76;100693.00;12808516;23;20017;-62